Time;durP1;ratioP1;P1;durP2;ratioP2;P2;SDS_P1;SDS_P2;PMS_P1;PMS_P2;Temp;Humidity;BMP_temperature;BMP_pressure;BME280_temperature;BME280_humidity;BME280_pressure;Samples;Min_cycle;Max_cycle;Signal;HPM_P1;HPM_P2
2021/08/05 00:01:51;;;;;;;7.80;5.72;;;17.30;99.90;;;;;;4221854;28;20036;-61
2021/08/05 00:03:52;;;;;;;7.20;4.65;;;17.30;99.90;;;;;;4222806;28;20032;-61
2021/08/05 00:05:53;;;;;;;9.38;5.63;;;17.20;99.90;;;;;;4221789;28;20372;-59
2021/08/05 00:07:54;;;;;;;6.95;4.72;;;17.20;99.90;;;;;;4221543;28;20080;-61
2021/08/05 00:09:56;;;;;;;9.07;5.78;;;17.10;99.90;;;;;;4222701;28;20031;-61
2021/08/05 00:11:57;;;;;;;11.52;5.25;;;17.10;99.90;;;;;;4221806;28;20027;-61
2021/08/05 00:13:58;;;;;;;8.85;5.05;;;17.10;99.90;;;;;;4223239;28;20073;-60
2021/08/05 00:15:59;;;;;;;7.85;5.38;;;17.10;99.90;;;;;;4220423;28;20048;-58
2021/08/05 00:18:00;;;;;;;9.85;4.60;;;17.10;99.90;;;;;;4226838;27;20087;-61
2021/08/05 00:20:03;;;;;;;8.02;4.97;;;17.10;99.90;;;;;;4238434;27;20088;-60
2021/08/05 00:22:04;;;;;;;7.45;4.95;;;17.10;99.90;;;;;;4228401;28;20532;-61
2021/08/05 00:24:05;;;;;;;11.18;5.50;;;17.10;99.90;;;;;;4221817;28;20068;-61
2021/08/05 00:26:06;;;;;;;13.05;4.60;;;17.10;99.90;;;;;;4222864;28;20069;-61
2021/08/05 00:28:07;;;;;;;5.35;4.85;;;17.00;99.90;;;;;;4221705;28;20065;-61
2021/08/05 00:30:09;;;;;;;11.50;5.75;;;17.00;99.90;;;;;;4222113;28;20088;-61
2021/08/05 00:32:10;;;;;;;7.43;4.82;;;17.00;99.90;;;;;;4221396;28;20031;-58
2021/08/05 00:34:12;;;;;;;7.40;5.20;;;16.90;99.90;;;;;;4222877;28;20027;-59
2021/08/05 00:36:13;;;;;;;8.85;6.03;;;16.90;99.90;;;;;;4221352;28;20514;-60
2021/08/05 00:38:14;;;;;;;6.80;5.00;;;16.90;99.90;;;;;;4222085;28;20032;-61
2021/08/05 00:40:15;;;;;;;8.60;5.43;;;16.90;99.90;;;;;;4222307;28;20785;-61
2021/08/05 00:42:17;;;;;;;12.02;6.22;;;16.80;99.90;;;;;;4222033;28;20104;-61
2021/08/05 00:44:18;;;;;;;9.82;6.00;;;16.80;99.90;;;;;;4226267;28;20031;-60
2021/08/05 00:46:19;;;;;;;10.88;5.82;;;16.80;99.90;;;;;;4225149;28;20036;-60
2021/08/05 00:48:20;;;;;;;6.85;5.70;;;16.80;99.90;;;;;;4226093;28;20555;-60
2021/08/05 00:50:21;;;;;;;9.82;5.15;;;16.80;99.90;;;;;;4234556;27;20064;-60
2021/08/05 00:52:23;;;;;;;7.25;5.63;;;16.80;99.90;;;;;;4243447;27;20440;-60
2021/08/05 00:54:24;;;;;;;6.55;5.10;;;16.90;99.90;;;;;;4224901;27;20092;-60
2021/08/05 00:56:26;;;;;;;7.30;4.95;;;16.90;99.90;;;;;;4225380;28;20089;-61
2021/08/05 00:58:27;;;;;;;7.60;5.22;;;16.90;99.90;;;;;;4224435;28;20100;-61
2021/08/05 01:00:29;;;;;;;9.73;5.63;;;17.00;99.90;;;;;;4225944;28;20031;-61
2021/08/05 01:02:36;;;;;;;12.73;6.75;;;17.00;99.90;;;;;;4225280;28;20081;-60
2021/08/05 01:04:38;;;;;;;13.82;6.53;;;17.00;99.90;;;;;;4225145;28;20031;-61
2021/08/05 01:06:47;;;;;;;9.52;6.20;;;16.90;99.90;;;;;;4224489;28;20061;-60
2021/08/05 01:08:57;;;;;;;10.70;5.97;;;17.00;99.90;;;;;;4225348;28;20028;-60
2021/08/05 01:11:12;;;;;;;11.13;6.32;;;16.90;99.90;;;;;;4225029;28;20566;-61
2021/08/05 01:13:19;;;;;;;13.57;5.80;;;16.90;99.90;;;;;;4225512;28;20077;-54
2021/08/05 01:15:23;;;;;;;9.18;6.13;;;16.90;99.90;;;;;;4224428;28;20568;-61
2021/08/05 01:17:27;;;;;;;12.38;5.82;;;16.90;99.90;;;;;;4225172;28;20035;-61
2021/08/05 01:19:50;;;;;;;12.23;6.30;;;16.80;99.90;;;;;;4224476;28;20885;-61
2021/08/05 01:22:22;;;;;;;10.40;6.40;;;16.70;99.90;;;;;;4208578;28;20036;-63
2021/08/05 01:24:24;;;;;;;11.25;7.00;;;16.70;99.90;;;;;;4217119;28;20199;-61
2021/08/05 01:26:31;;;;;;;11.80;7.18;;;16.50;99.90;;;;;;4225470;28;20920;-61
2021/08/05 01:28:34;;;;;;;9.50;6.45;;;16.50;99.90;;;;;;4224741;28;20036;-61
2021/08/05 01:30:36;;;;;;;12.45;6.93;;;16.50;99.90;;;;;;4225424;28;20080;-60
2021/08/05 01:32:39;;;;;;;8.60;6.32;;;16.40;99.90;;;;;;4224447;28;20426;-60
2021/08/05 01:34:40;;;;;;;13.85;6.82;;;16.40;99.90;;;;;;4224805;28;20035;-61
2021/08/05 01:36:45;;;;;;;14.32;7.18;;;16.40;99.90;;;;;;4224546;28;20027;-62
2021/08/05 01:38:48;;;;;;;14.02;6.70;;;16.30;99.90;;;;;;4224538;28;20040;-60
2021/08/05 01:40:50;;;;;;;14.25;5.97;;;16.30;99.90;;;;;;4224807;28;20040;-60
2021/08/05 01:42:53;;;;;;;8.73;5.22;;;16.30;99.90;;;;;;4223926;28;20031;-59
2021/08/05 01:44:55;;;;;;;7.95;5.22;;;16.30;99.90;;;;;;4225308;28;20043;-61
2021/08/05 01:46:57;;;;;;;8.45;5.13;;;16.20;99.90;;;;;;4223882;28;20023;-61
2021/08/05 01:48:59;;;;;;;6.63;4.75;;;16.20;99.90;;;;;;4224828;28;20023;-59
2021/08/05 01:51:02;;;;;;;8.88;5.00;;;16.10;99.90;;;;;;4229613;27;20019;-62
2021/08/05 01:53:04;;;;;;;9.07;5.07;;;16.00;99.90;;;;;;4242120;27;20537;-61
2021/08/05 01:55:07;;;;;;;8.80;5.20;;;15.90;99.90;;;;;;4240802;27;20084;-62
2021/08/05 01:57:10;;;;;;;7.57;4.80;;;15.90;99.90;;;;;;4241808;27;20365;-60
2021/08/05 01:59:11;;;;;;;5.45;4.22;;;15.90;99.90;;;;;;4223693;28;20039;-60
2021/08/05 02:01:12;;;;;;;6.82;4.80;;;15.90;99.90;;;;;;4224596;28;20032;-61
2021/08/05 02:03:14;;;;;;;5.75;5.15;;;15.90;99.90;;;;;;4223632;28;20031;-60
2021/08/05 02:05:37;;;;;;;9.93;5.72;;;15.80;99.90;;;;;;4225053;28;20077;-61
2021/08/05 02:07:52;;;;;;;9.25;5.63;;;15.80;99.90;;;;;;4223423;28;20480;-61
2021/08/05 02:10:26;;;;;;;11.88;5.82;;;15.70;99.90;;;;;;4224597;28;20491;-61
2021/08/05 02:12:40;;;;;;;12.25;6.15;;;15.60;99.90;;;;;;4191608;28;20048;-60
2021/08/05 02:14:41;;;;;;;11.80;6.60;;;15.50;99.90;;;;;;4222841;28;20244;-60
2021/08/05 02:16:45;;;;;;;10.57;7.10;;;15.40;99.90;;;;;;4223390;28;20027;-61
2021/08/05 02:18:49;;;;;;;15.02;7.55;;;15.30;99.90;;;;;;4224293;28;20031;-61
2021/08/05 02:20:51;;;;;;;9.25;6.88;;;15.30;99.90;;;;;;4227203;27;20068;-60
2021/08/05 02:22:52;;;;;;;12.32;6.68;;;15.20;99.90;;;;;;4241862;27;20539;-61
2021/08/05 02:24:54;;;;;;;15.23;7.07;;;15.20;99.90;;;;;;4240949;27;20842;-61
2021/08/05 02:26:59;;;;;;;10.55;6.38;;;15.20;99.90;;;;;;4241447;27;20099;-61
2021/08/05 02:29:01;;;;;;;8.23;6.45;;;15.20;99.90;;;;;;4226746;27;20039;-60
2021/08/05 02:31:03;;;;;;;13.38;7.30;;;15.10;99.90;;;;;;4224329;28;20081;-62
2021/08/05 02:33:05;;;;;;;16.17;8.57;;;15.10;99.90;;;;;;4223086;28;20035;-61
2021/08/05 02:35:10;;;;;;;17.45;7.65;;;15.00;99.90;;;;;;4223147;28;20043;-60
2021/08/05 02:37:12;;;;;;;14.90;7.55;;;15.00;99.90;;;;;;4222198;28;20073;-59
2021/08/05 02:39:13;;;;;;;12.15;7.40;;;15.00;99.90;;;;;;4223168;28;20123;-61
2021/08/05 02:41:15;;;;;;;12.98;7.88;;;15.00;99.90;;;;;;4223795;28;20031;-61
2021/08/05 02:43:19;;;;;;;14.45;8.13;;;15.10;99.90;;;;;;4222930;28;20031;-59
2021/08/05 02:45:20;;;;;;;16.23;8.60;;;15.10;99.90;;;;;;4224290;28;20028;-58
2021/08/05 02:47:21;;;;;;;11.07;8.45;;;15.10;99.90;;;;;;4222527;28;20550;-61
2021/08/05 02:49:22;;;;;;;14.38;8.60;;;15.10;99.90;;;;;;4223659;28;20963;-58
2021/08/05 02:51:24;;;;;;;16.40;9.20;;;15.10;99.90;;;;;;4225596;27;20039;-61
2021/08/05 02:53:27;;;;;;;17.23;9.98;;;15.10;99.90;;;;;;4240923;27;20902;-60
2021/08/05 02:55:29;;;;;;;15.30;9.40;;;15.10;99.90;;;;;;4239850;27;20039;-61
2021/08/05 02:57:31;;;;;;;14.88;10.02;;;15.00;99.90;;;;;;4228637;27;20946;-60
2021/08/05 02:59:32;;;;;;;14.60;9.25;;;15.00;99.90;;;;;;4222049;28;20048;-60
2021/08/05 03:01:34;;;;;;;17.55;9.73;;;15.00;99.90;;;;;;4223193;28;20540;-61
2021/08/05 03:03:36;;;;;;;16.95;8.60;;;15.00;99.90;;;;;;4222752;28;20429;-58
2021/08/05 03:05:37;;;;;;;20.05;8.98;;;15.10;99.90;;;;;;4222761;28;20043;-61
2021/08/05 03:07:38;;;;;;;14.02;8.82;;;15.10;99.90;;;;;;4222819;28;20035;-61
2021/08/05 03:09:40;;;;;;;20.05;9.40;;;15.10;99.90;;;;;;4223066;28;20543;-60
2021/08/05 03:11:41;;;;;;;15.45;8.55;;;15.10;99.90;;;;;;4222726;28;20044;-59
2021/08/05 03:13:42;;;;;;;18.88;7.80;;;15.20;99.90;;;;;;4222551;28;20568;-60
2021/08/05 03:15:43;;;;;;;15.80;8.48;;;15.20;99.90;;;;;;4224080;28;20085;-60
2021/08/05 03:17:44;;;;;;;18.17;8.60;;;15.20;99.90;;;;;;4222763;28;20035;-60
2021/08/05 03:19:45;;;;;;;20.98;9.25;;;15.30;99.90;;;;;;4222715;28;20039;-61
2021/08/05 03:21:46;;;;;;;18.20;9.57;;;15.30;99.90;;;;;;4223270;27;20023;-60
2021/08/05 03:23:48;;;;;;;18.23;9.13;;;15.30;99.90;;;;;;4240998;27;20151;-62
2021/08/05 03:25:49;;;;;;;15.23;8.95;;;15.30;99.90;;;;;;4239134;27;21008;-61
2021/08/05 03:27:50;;;;;;;15.35;9.05;;;15.30;99.90;;;;;;4239088;27;20080;-61
2021/08/05 03:29:51;;;;;;;19.17;9.30;;;15.40;99.90;;;;;;4221928;28;20032;-61
2021/08/05 03:31:52;;;;;;;18.83;9.32;;;15.40;99.90;;;;;;4222682;27;20053;-60
2021/08/05 03:33:53;;;;;;;18.00;8.60;;;15.50;99.90;;;;;;4222043;28;20051;-60
2021/08/05 03:35:54;;;;;;;10.45;8.52;;;15.60;99.90;;;;;;4223099;27;20043;-61
2021/08/05 03:37:55;;;;;;;17.00;8.50;;;15.60;99.90;;;;;;4222388;28;20061;-58
2021/08/05 03:39:56;;;;;;;16.30;8.52;;;15.70;99.90;;;;;;4222840;28;20040;-62
2021/08/05 03:41:58;;;;;;;22.67;8.40;;;15.80;99.90;;;;;;4222556;28;20043;-61
2021/08/05 03:43:59;;;;;;;18.38;8.23;;;15.90;99.90;;;;;;4221954;27;20529;-61
2021/08/05 03:46:00;;;;;;;15.00;8.55;;;15.90;99.90;;;;;;4223087;28;20053;-62
2021/08/05 03:48:01;;;;;;;16.25;9.55;;;15.90;99.90;;;;;;4221698;28;20076;-61
2021/08/05 03:50:06;;;;;;;21.80;9.63;;;15.90;99.90;;;;;;4222702;28;20085;-61
2021/08/05 03:52:10;;;;;;;24.33;10.13;;;15.90;99.90;;;;;;4220998;28;20036;-59
2021/08/05 03:54:12;;;;;;;18.65;9.77;;;15.70;99.90;;;;;;4223177;28;20040;-61
2021/08/05 03:56:13;;;;;;;17.20;9.52;;;15.70;99.90;;;;;;4220883;28;20020;-60
2021/08/05 03:58:14;;;;;;;14.15;10.15;;;15.70;99.90;;;;;;4220884;28;20039;-62
2021/08/05 04:00:17;;;;;;;23.67;11.10;;;15.70;99.90;;;;;;4219452;28;20567;-61
2021/08/05 04:02:18;;;;;;;17.88;10.38;;;15.70;99.90;;;;;;4233434;27;20088;-62
2021/08/05 04:04:19;;;;;;;15.27;9.85;;;15.70;99.90;;;;;;4221199;28;20024;-62
2021/08/05 04:06:21;;;;;;;21.42;10.07;;;15.60;99.90;;;;;;4222745;28;20453;-61
2021/08/05 04:08:22;;;;;;;15.90;9.77;;;15.60;99.90;;;;;;4222240;28;20036;-62
2021/08/05 04:10:24;;;;;;;15.32;9.13;;;15.60;99.90;;;;;;4222506;28;20202;-62
2021/08/05 04:12:26;;;;;;;19.63;9.20;;;15.60;99.90;;;;;;4220646;28;20043;-61
2021/08/05 04:14:28;;;;;;;15.93;9.70;;;15.60;99.90;;;;;;4221801;28;20036;-61
2021/08/05 04:16:30;;;;;;;18.30;10.18;;;15.60;99.90;;;;;;4221467;28;20093;-62
2021/08/05 04:18:32;;;;;;;15.63;9.57;;;15.70;99.90;;;;;;4221563;28;20043;-62
2021/08/05 04:20:33;;;;;;;20.48;9.40;;;15.80;99.90;;;;;;4222960;28;20100;-61
2021/08/05 04:22:36;;;;;;;14.60;9.50;;;15.80;99.90;;;;;;4221598;28;20039;-62
2021/08/05 04:24:37;;;;;;;13.65;8.65;;;15.90;99.90;;;;;;4222436;28;20035;-61
2021/08/05 04:26:38;;;;;;;12.38;8.88;;;16.20;99.90;;;;;;4221657;28;20039;-61
2021/08/05 04:28:39;;;;;;;11.77;9.15;;;16.20;99.90;;;;;;4222821;28;20505;-62
2021/08/05 04:30:40;;;;;;;13.98;9.25;;;16.30;99.90;;;;;;4221431;28;20024;-62
2021/08/05 04:32:42;;;;;;;22.05;10.10;;;16.30;99.90;;;;;;4222742;28;20035;-65
2021/08/05 04:34:43;;;;;;;20.73;10.50;;;16.30;99.90;;;;;;4221539;28;20081;-61
2021/08/05 04:36:44;;;;;;;21.17;9.50;;;16.30;99.90;;;;;;4222951;28;20084;-60
2021/08/05 04:38:45;;;;;;;24.00;9.48;;;16.50;99.90;;;;;;4220437;28;20452;-61
2021/08/05 04:40:46;;;;;;;16.13;9.43;;;16.60;99.90;;;;;;4222632;28;20035;-62
2021/08/05 04:42:48;;;;;;;18.20;10.18;;;16.70;99.90;;;;;;4221665;28;20077;-61
2021/08/05 04:44:49;;;;;;;25.50;10.52;;;16.80;99.90;;;;;;4222159;28;20101;-61
2021/08/05 04:46:50;;;;;;;20.15;10.13;;;17.10;99.90;;;;;;4211722;28;20031;-62
2021/08/05 04:48:51;;;;;;;18.73;10.38;;;17.30;99.90;;;;;;4219740;28;20639;-62
2021/08/05 04:50:53;;;;;;;30.42;11.15;;;17.60;99.90;;;;;;4220164;27;20039;-61
2021/08/05 04:52:55;;;;;;;15.95;9.88;;;17.90;99.90;;;;;;4219419;28;20044;-60
2021/08/05 04:54:56;;;;;;;20.63;10.25;;;18.10;99.90;;;;;;4221008;28;20035;-61
2021/08/05 04:56:57;;;;;;;16.30;8.52;;;18.40;99.90;;;;;;4219724;27;20084;-61
2021/08/05 04:58:59;;;;;;;27.08;10.23;;;18.70;99.90;;;;;;4221130;28;20031;-61
2021/08/05 05:01:00;;;;;;;16.52;7.60;;;18.90;99.90;;;;;;4219139;27;20059;-61
2021/08/05 05:03:02;;;;;;;13.13;7.35;;;19.00;99.90;;;;;;4220925;28;20039;-61
2021/08/05 05:05:03;;;;;;;10.70;6.28;;;19.00;99.90;;;;;;4219059;28;20039;-59
2021/08/05 05:07:04;;;;;;;9.88;6.30;;;18.90;99.90;;;;;;4220880;27;20036;-60
2021/08/05 05:09:06;;;;;;;8.55;6.20;;;18.80;99.90;;;;;;4213621;28;20040;-61
2021/08/05 05:11:07;;;;;;;10.02;6.18;;;19.00;99.90;;;;;;4203814;28;20051;-61
2021/08/05 05:13:09;;;;;;;11.32;6.63;;;19.20;99.90;;;;;;4218985;28;20069;-62
2021/08/05 05:15:11;;;;;;;7.00;6.00;;;19.50;99.90;;;;;;4220813;28;20036;-58
2021/08/05 05:17:12;;;;;;;9.73;6.15;;;19.50;99.90;;;;;;4220454;28;20024;-61
2021/08/05 05:19:14;;;;;;;7.90;5.95;;;19.70;99.90;;;;;;4220750;28;20576;-61
2021/08/05 05:21:15;;;;;;;7.80;5.78;;;19.80;99.90;;;;;;4221519;28;20077;-60
2021/08/05 05:23:16;;;;;;;6.70;5.85;;;19.70;99.90;;;;;;4221440;28;20072;-61
2021/08/05 05:25:17;;;;;;;7.47;5.82;;;19.60;99.90;;;;;;4222143;28;20040;-62
2021/08/05 05:27:18;;;;;;;8.80;6.15;;;19.50;99.90;;;;;;4221080;28;20080;-60
2021/08/05 05:29:20;;;;;;;10.02;6.53;;;19.40;99.90;;;;;;4224489;28;20035;-62
2021/08/05 05:31:21;;;;;;;12.48;6.40;;;19.30;99.90;;;;;;4224158;28;20031;-61
2021/08/05 05:33:22;;;;;;;10.23;6.00;;;19.50;99.90;;;;;;4223536;28;20093;-61
2021/08/05 05:35:23;;;;;;;10.48;6.82;;;19.80;99.90;;;;;;4224255;28;20047;-61
2021/08/05 05:37:25;;;;;;;10.70;6.00;;;19.70;99.90;;;;;;4225468;28;20031;-62
2021/08/05 05:39:26;;;;;;;8.63;5.85;;;19.70;99.90;;;;;;4223935;28;20100;-60
2021/08/05 05:41:27;;;;;;;9.00;7.13;;;19.70;99.90;;;;;;4225334;28;20785;-61
2021/08/05 05:43:28;;;;;;;10.98;6.95;;;19.60;99.90;;;;;;4224236;28;20429;-61
2021/08/05 05:45:30;;;;;;;11.10;6.82;;;19.40;99.90;;;;;;4224779;28;20043;-61
2021/08/05 05:47:31;;;;;;;10.65;6.82;;;19.40;99.90;;;;;;4223812;28;20486;-60
2021/08/05 05:49:32;;;;;;;10.77;6.95;;;19.40;99.90;;;;;;4224291;28;20031;-61
2021/08/05 05:51:34;;;;;;;10.25;7.05;;;19.60;99.90;;;;;;4224447;28;20089;-61
2021/08/05 05:53:35;;;;;;;16.98;6.72;;;19.60;99.90;;;;;;4223686;28;20047;-61
2021/08/05 05:55:39;;;;;;;8.63;6.28;;;19.60;99.90;;;;;;4224491;28;20020;-60
2021/08/05 05:57:41;;;;;;;9.90;6.10;;;19.90;99.90;;;;;;4223895;28;20040;-61
2021/08/05 05:59:42;;;;;;;12.18;6.13;;;20.20;99.90;;;;;;4224754;28;20457;-61
2021/08/05 06:01:43;;;;;;;8.68;6.18;;;20.40;99.90;;;;;;4223693;28;20027;-60
2021/08/05 06:03:44;;;;;;;8.85;5.63;;;20.60;99.90;;;;;;4224690;28;20101;-61
2021/08/05 06:05:46;;;;;;;9.07;5.95;;;20.80;99.90;;;;;;4223258;28;20040;-60
2021/08/05 06:07:50;;;;;;;9.77;5.60;;;20.90;99.90;;;;;;4224559;28;20445;-61
2021/08/05 06:09:51;;;;;;;10.43;5.57;;;21.20;99.90;;;;;;4223794;28;20028;-61
2021/08/05 06:11:52;;;;;;;12.05;5.45;;;21.30;99.90;;;;;;4225279;28;20039;-61
2021/08/05 06:13:54;;;;;;;7.45;4.68;;;21.40;99.90;;;;;;4223057;28;20035;-61
2021/08/05 06:15:55;;;;;;;7.53;5.20;;;21.50;99.90;;;;;;4224374;28;20024;-61
2021/08/05 06:17:56;;;;;;;6.43;4.53;;;21.40;99.90;;;;;;4223173;28;20496;-61
2021/08/05 06:19:57;;;;;;;9.45;5.10;;;21.40;99.90;;;;;;4223936;28;20036;-61
2021/08/05 06:21:58;;;;;;;8.35;5.00;;;21.60;99.90;;;;;;4223965;28;20085;-60
2021/08/05 06:23:59;;;;;;;7.15;5.35;;;21.70;99.90;;;;;;4223180;28;20077;-60
2021/08/05 06:26:00;;;;;;;5.63;4.13;;;21.70;99.90;;;;;;4224420;28;20039;-61
2021/08/05 06:28:03;;;;;;;9.52;4.57;;;21.70;99.90;;;;;;4223199;28;20087;-60
2021/08/05 06:30:05;;;;;;;4.88;4.15;;;21.70;99.90;;;;;;4224460;28;20040;-61
2021/08/05 06:32:06;;;;;;;7.95;4.80;;;21.80;99.90;;;;;;4222729;28;20599;-61
2021/08/05 06:34:08;;;;;;;6.95;4.60;;;21.90;99.90;;;;;;4224751;28;20124;-61
2021/08/05 06:36:09;;;;;;;6.90;4.43;;;22.00;99.90;;;;;;4222940;28;20092;-61
2021/08/05 06:38:11;;;;;;;8.95;4.50;;;21.90;99.90;;;;;;4224344;28;20128;-60
2021/08/05 06:40:13;;;;;;;6.22;4.13;;;22.10;99.90;;;;;;4222292;28;20488;-61
2021/08/05 06:42:14;;;;;;;7.32;4.03;;;22.10;99.90;;;;;;4224648;28;20077;-61
2021/08/05 06:44:15;;;;;;;9.32;4.60;;;22.30;99.90;;;;;;4223169;28;20023;-61
2021/08/05 06:46:16;;;;;;;7.85;4.00;;;22.60;99.90;;;;;;4223845;28;20057;-61
2021/08/05 06:48:17;;;;;;;5.57;3.40;;;22.80;99.90;;;;;;4222775;28;20982;-60
2021/08/05 06:50:19;;;;;;;6.57;3.17;;;23.10;99.90;;;;;;4223667;28;21041;-61
2021/08/05 06:52:20;;;;;;;6.50;4.00;;;23.10;99.90;;;;;;4223251;28;20554;-61
2021/08/05 06:54:21;;;;;;;8.05;3.90;;;23.20;99.90;;;;;;4223063;28;20104;-61
2021/08/05 06:56:22;;;;;;;5.93;2.92;;;23.30;99.90;;;;;;4223246;28;20023;-61
2021/08/05 06:58:23;;;;;;;6.38;3.42;;;23.40;99.90;;;;;;4221150;28;20036;-61
2021/08/05 07:00:24;;;;;;;7.03;4.43;;;23.40;99.90;;;;;;4223179;28;20104;-60
2021/08/05 07:02:26;;;;;;;6.32;4.10;;;23.50;99.90;;;;;;4222332;28;20097;-61
2021/08/05 07:04:27;;;;;;;7.47;3.83;;;23.50;99.90;;;;;;4224003;28;20031;-61
2021/08/05 07:06:28;;;;;;;9.60;4.28;;;23.60;99.90;;;;;;4222555;28;20611;-60
2021/08/05 07:08:29;;;;;;;5.75;4.43;;;23.70;99.90;;;;;;4223632;28;20475;-61
2021/08/05 07:10:30;;;;;;;6.95;4.22;;;23.80;99.90;;;;;;4222152;28;20024;-61
2021/08/05 07:12:32;;;;;;;7.47;4.18;;;23.70;99.90;;;;;;4224515;28;20023;-61
2021/08/05 07:14:33;;;;;;;9.98;5.13;;;23.70;99.90;;;;;;4222328;28;20031;-61
2021/08/05 07:16:34;;;;;;;8.23;3.58;;;23.80;99.90;;;;;;4223087;28;20035;-61
2021/08/05 07:18:35;;;;;;;7.55;4.50;;;23.70;99.90;;;;;;4222126;27;20047;-62
2021/08/05 07:20:37;;;;;;;13.90;5.70;;;23.80;99.90;;;;;;4223213;28;20043;-61
2021/08/05 07:22:40;;;;;;;7.05;5.13;;;23.90;99.90;;;;;;4222806;28;20036;-61
2021/08/05 07:24:41;;;;;;;10.70;5.15;;;23.90;99.90;;;;;;4222570;28;20032;-61
2021/08/05 07:26:42;;;;;;;8.82;4.75;;;23.90;99.90;;;;;;4223220;28;20031;-60
2021/08/05 07:28:44;;;;;;;7.47;4.50;;;24.00;99.90;;;;;;4222292;28;20068;-60
2021/08/05 07:30:46;;;;;;;7.70;5.25;;;23.90;99.90;;;;;;4223041;28;20540;-61
2021/08/05 07:32:49;;;;;;;10.57;4.90;;;24.10;99.90;;;;;;4222344;28;20068;-61
2021/08/05 07:34:50;;;;;;;6.97;4.13;;;24.20;99.90;;;;;;4223394;28;20028;-60
2021/08/05 07:36:51;;;;;;;7.50;4.57;;;24.30;99.90;;;;;;4222281;28;20085;-61
2021/08/05 07:38:52;;;;;;;5.10;4.13;;;24.40;99.90;;;;;;4223045;28;20506;-58
2021/08/05 07:40:54;;;;;;;12.65;5.38;;;24.40;99.90;;;;;;4222405;28;20043;-61
2021/08/05 07:42:55;;;;;;;10.68;4.78;;;24.50;99.90;;;;;;4223588;28;20024;-61
2021/08/05 07:44:56;;;;;;;8.02;4.00;;;24.60;99.90;;;;;;4221559;28;20035;-60
2021/08/05 07:46:57;;;;;;;6.50;4.78;;;24.80;99.90;;;;;;4223226;28;20023;-61
2021/08/05 07:48:58;;;;;;;7.97;4.82;;;24.90;99.90;;;;;;4222403;28;20023;-60
2021/08/05 07:51:00;;;;;;;8.02;4.93;;;24.90;99.90;;;;;;4222762;28;20036;-61
2021/08/05 07:53:03;;;;;;;9.18;4.55;;;25.10;99.90;;;;;;4222028;28;20096;-61
2021/08/05 07:55:06;;;;;;;7.15;4.35;;;25.10;99.90;;;;;;4222430;28;20097;-61
2021/08/05 07:57:07;;;;;;;6.35;3.88;;;25.30;99.90;;;;;;4222254;28;20479;-61
2021/08/05 07:59:08;;;;;;;5.57;3.80;;;25.60;99.90;;;;;;4222133;28;20088;-61
2021/08/05 08:01:09;;;;;;;5.55;3.60;;;25.80;99.50;;;;;;4222352;28;20770;-61
2021/08/05 08:03:11;;;;;;;6.85;4.10;;;26.00;99.40;;;;;;4221866;28;20028;-60
2021/08/05 08:05:14;;;;;;;7.63;4.38;;;26.10;99.30;;;;;;4223017;28;20096;-61
2021/08/05 08:07:15;;;;;;;6.90;4.72;;;26.20;98.90;;;;;;4221337;28;20084;-61
2021/08/05 08:09:17;;;;;;;6.90;4.57;;;26.10;98.80;;;;;;4222872;28;20044;-61
2021/08/05 08:11:22;;;;;;;18.15;5.15;;;25.80;99.00;;;;;;4221841;28;20072;-61
2021/08/05 08:13:24;;;;;;;10.38;5.38;;;25.80;99.10;;;;;;4220744;28;20052;-61
2021/08/05 08:15:26;;;;;;;6.97;5.22;;;25.90;99.20;;;;;;4219624;28;20065;-62
2021/08/05 08:17:27;;;;;;;6.53;5.22;;;25.90;99.40;;;;;;4222372;28;20396;-61
2021/08/05 08:19:30;;;;;;;6.63;4.60;;;25.90;99.50;;;;;;4220976;28;20088;-61
2021/08/05 08:21:31;;;;;;;7.72;5.55;;;26.00;99.40;;;;;;4222524;28;20085;-61
2021/08/05 08:23:32;;;;;;;10.48;5.32;;;26.10;99.40;;;;;;4221595;28;20093;-60
2021/08/05 08:25:33;;;;;;;8.57;4.63;;;26.30;99.40;;;;;;4222486;28;20492;-62
2021/08/05 08:27:34;;;;;;;8.85;4.85;;;26.90;99.30;;;;;;4221569;28;20035;-62
2021/08/05 08:29:36;;;;;;;5.38;3.90;;;27.30;98.80;;;;;;4221216;28;20031;-61
2021/08/05 08:31:37;;;;;;;7.10;4.25;;;27.40;98.20;;;;;;4222078;28;20077;-60
2021/08/05 08:33:38;;;;;;;9.07;4.47;;;27.50;97.90;;;;;;4221729;28;20019;-61
2021/08/05 08:35:39;;;;;;;10.15;4.80;;;27.30;97.60;;;;;;4222173;28;20027;-61
2021/08/05 08:37:40;;;;;;;6.63;4.57;;;27.10;97.80;;;;;;4221505;28;20024;-61
2021/08/05 08:39:41;;;;;;;9.45;5.00;;;26.90;97.70;;;;;;4223040;28;20020;-61
2021/08/05 08:41:43;;;;;;;6.97;4.43;;;26.70;98.00;;;;;;4221781;28;20047;-61
2021/08/05 08:43:44;;;;;;;12.45;4.80;;;26.70;97.70;;;;;;4222230;28;20051;-61
2021/08/05 08:45:47;;;;;;;7.20;4.82;;;26.60;98.00;;;;;;4221424;28;20023;-63
2021/08/05 08:47:55;;;;;;;7.05;4.95;;;26.50;98.10;;;;;;4222315;28;20045;-61
2021/08/05 08:49:57;;;;;;;9.63;5.40;;;26.60;97.90;;;;;;4221260;28;20031;-61
2021/08/05 08:51:58;;;;;;;9.07;5.35;;;26.60;98.20;;;;;;4222367;28;20027;-61
2021/08/05 08:54:08;;;;;;;11.02;5.05;;;26.60;98.20;;;;;;4221206;28;20047;-61
2021/08/05 08:56:09;;;;;;;10.77;6.03;;;26.90;98.20;;;;;;4222479;28;20084;-61
2021/08/05 08:58:12;;;;;;;13.90;5.15;;;27.00;98.10;;;;;;4221647;28;20100;-61
2021/08/05 09:00:13;;;;;;;9.00;5.57;;;26.90;98.00;;;;;;4221911;28;20089;-61
2021/08/05 09:02:15;;;;;;;7.63;5.15;;;26.90;98.30;;;;;;4221410;28;20089;-61
2021/08/05 09:04:17;;;;;;;9.07;5.60;;;27.10;98.30;;;;;;4223654;28;20035;-61
2021/08/05 09:06:18;;;;;;;9.13;5.20;;;27.00;97.90;;;;;;4225049;28;20085;-62
2021/08/05 09:08:20;;;;;;;12.48;4.95;;;27.00;98.00;;;;;;4224837;28;20089;-61
2021/08/05 09:10:21;;;;;;;10.27;4.60;;;27.10;97.90;;;;;;4224829;28;20088;-61
2021/08/05 09:12:23;;;;;;;9.88;5.68;;;27.10;97.80;;;;;;4224868;28;20027;-61
2021/08/05 09:14:39;;;;;;;10.40;5.15;;;26.90;97.00;;;;;;4225165;28;20048;-62
2021/08/05 09:16:41;;;;;;;7.57;5.18;;;26.70;97.50;;;;;;4224054;28;20084;-61
2021/08/05 09:18:42;;;;;;;10.25;5.20;;;26.50;97.90;;;;;;4225131;28;20606;-61
2021/08/05 09:21:12;;;;;;;11.18;5.28;;;26.30;98.30;;;;;;4222072;28;20532;-61
2021/08/05 09:23:14;;;;;;;8.38;5.07;;;26.50;98.20;;;;;;4225096;28;20028;-60
2021/08/05 09:25:17;;;;;;;10.90;5.20;;;26.60;98.00;;;;;;4224099;28;20476;-61
2021/08/05 09:27:31;;;;;;;10.88;5.00;;;26.70;98.10;;;;;;4225238;28;20081;-60
2021/08/05 09:29:43;;;;;;;7.15;5.13;;;26.90;98.20;;;;;;4224290;28;20073;-61
2021/08/05 09:31:50;;;;;;;8.90;5.13;;;26.80;98.20;;;;;;4225021;28;20085;-61
2021/08/05 09:33:59;;;;;;;15.35;5.50;;;26.70;98.00;;;;;;4223979;28;20092;-61
2021/08/05 09:36:00;;;;;;;12.45;5.40;;;26.60;98.10;;;;;;4225305;28;20015;-61
2021/08/05 09:38:24;;;;;;;9.25;6.22;;;26.50;98.40;;;;;;4223807;28;20110;-61
2021/08/05 09:40:30;;;;;;;8.20;5.35;;;26.40;98.80;;;;;;4224809;28;20035;-61
2021/08/05 09:42:31;;;;;;;7.00;5.30;;;26.30;98.60;;;;;;4224520;28;20093;-60
2021/08/05 09:44:38;;;;;;;6.85;4.95;;;26.30;98.60;;;;;;4224832;28;20035;-61
2021/08/05 09:46:40;;;;;;;10.68;4.57;;;26.30;98.90;;;;;;4223623;28;20092;-61
2021/08/05 09:48:43;;;;;;;7.40;5.22;;;26.30;98.90;;;;;;4225269;28;20031;-61
2021/08/05 09:50:44;;;;;;;6.35;5.13;;;26.40;98.90;;;;;;4223101;28;20452;-61
2021/08/05 09:52:47;;;;;;;10.65;5.72;;;26.30;98.80;;;;;;4206437;28;20066;-61
2021/08/05 09:54:51;;;;;;;7.05;4.90;;;26.30;98.90;;;;;;4223635;28;20035;-61
2021/08/05 09:56:55;;;;;;;13.15;6.32;;;26.40;98.90;;;;;;4224641;28;20039;-60
2021/08/05 09:59:10;;;;;;;13.20;5.53;;;26.40;99.00;;;;;;4223448;28;20032;-60
2021/08/05 10:01:12;;;;;;;9.32;5.20;;;26.30;99.00;;;;;;4224570;28;20472;-61
2021/08/05 10:03:29;;;;;;;7.28;5.10;;;26.30;99.00;;;;;;4223465;28;20080;-61
2021/08/05 10:05:30;;;;;;;8.07;5.18;;;26.30;98.70;;;;;;4224303;28;20084;-61
2021/08/05 10:07:44;;;;;;;9.48;5.13;;;26.30;98.80;;;;;;4223317;28;20059;-60
2021/08/05 10:09:45;;;;;;;8.82;5.45;;;26.40;98.90;;;;;;4224326;28;20043;-60
2021/08/05 10:11:46;;;;;;;7.05;5.25;;;26.30;98.90;;;;;;4222977;28;20373;-61
2021/08/05 10:13:47;;;;;;;12.73;5.18;;;26.20;98.90;;;;;;4224394;27;20092;-60
2021/08/05 10:15:52;;;;;;;11.25;6.93;;;26.20;98.90;;;;;;4223430;28;20027;-60
2021/08/05 10:17:55;;;;;;;12.77;5.72;;;26.20;98.90;;;;;;4223478;28;20148;-60
2021/08/05 10:19:58;;;;;;;12.23;5.22;;;26.20;98.90;;;;;;4223555;28;20489;-60
2021/08/05 10:21:59;;;;;;;9.52;5.50;;;26.20;99.10;;;;;;4223319;28;20059;-61
2021/08/05 10:24:00;;;;;;;7.15;4.72;;;26.20;99.50;;;;;;4223399;28;20040;-60
2021/08/05 10:26:05;;;;;;;7.88;5.03;;;26.20;99.10;;;;;;4223353;28;20088;-61
2021/08/05 10:28:06;;;;;;;11.25;4.78;;;26.10;99.10;;;;;;4224244;28;20036;-61
2021/08/05 10:30:11;;;;;;;8.80;5.13;;;26.10;99.20;;;;;;4222524;28;20081;-61
2021/08/05 10:32:14;;;;;;;8.00;4.80;;;26.20;99.30;;;;;;4224248;28;20016;-60
2021/08/05 10:34:16;;;;;;;9.40;5.40;;;26.20;99.20;;;;;;4222871;28;20031;-61